sensor_id;sensor_type;location;lat;lon;timestamp;temperature;humidity
28632;DHT22;15818;45.534;5.292;2022-10-16T00:02:20;16.10;99.90
28632;DHT22;15818;45.534;5.292;2022-10-16T00:04:45;16.10;99.90
28632;DHT22;15818;45.534;5.292;2022-10-16T00:07:11;16.10;99.90
28632;DHT22;15818;45.534;5.292;2022-10-16T00:09:37;16.10;99.90
28632;DHT22;15818;45.534;5.292;2022-10-16T00:12:03;16.00;99.90
28632;DHT22;15818;45.534;5.292;2022-10-16T00:14:29;16.00;99.90
28632;DHT22;15818;45.534;5.292;2022-10-16T00:16:55;15.90;99.90
28632;DHT22;15818;45.534;5.292;2022-10-16T00:19:21;15.90;99.90
28632;DHT22;15818;45.534;5.292;2022-10-16T00:21:46;15.80;99.90
28632;DHT22;15818;45.534;5.292;2022-10-16T00:24:12;15.80;99.90
28632;DHT22;15818;45.534;5.292;2022-10-16T00:26:38;15.80;99.90
28632;DHT22;15818;45.534;5.292;2022-10-16T00:29:05;15.80;99.90
28632;DHT22;15818;45.534;5.292;2022-10-16T00:31:31;15.70;99.90
28632;DHT22;15818;45.534;5.292;2022-10-16T00:33:56;15.70;99.90
28632;DHT22;15818;45.534;5.292;2022-10-16T00:36:24;15.70;99.90
28632;DHT22;15818;45.534;5.292;2022-10-16T00:38:52;15.70;99.90
28632;DHT22;15818;45.534;5.292;2022-10-16T00:41:20;15.70;99.90
28632;DHT22;15818;45.534;5.292;2022-10-16T00:43:52;15.60;99.90
28632;DHT22;15818;45.534;5.292;2022-10-16T00:49:09;15.60;99.90
28632;DHT22;15818;45.534;5.292;2022-10-16T00:51:40;15.60;99.90
28632;DHT22;15818;45.534;5.292;2022-10-16T00:54:10;15.60;99.90
28632;DHT22;15818;45.534;5.292;2022-10-16T00:56:37;15.60;99.90
28632;DHT22;15818;45.534;5.292;2022-10-16T00:59:03;15.60;99.90
28632;DHT22;15818;45.534;5.292;2022-10-16T01:01:30;15.60;99.90
28632;DHT22;15818;45.534;5.292;2022-10-16T01:03:56;15.60;99.90
28632;DHT22;15818;45.534;5.292;2022-10-16T01:06:36;15.50;99.90
28632;DHT22;15818;45.534;5.292;2022-10-16T01:09:13;15.60;99.90
28632;DHT22;15818;45.534;5.292;2022-10-16T01:12:04;15.60;99.90
28632;DHT22;15818;45.534;5.292;2022-10-16T01:15:11;15.60;99.90
28632;DHT22;15818;45.534;5.292;2022-10-16T01:17:45;15.70;99.90
28632;DHT22;15818;45.534;5.292;2022-10-16T01:20:17;15.60;99.90
28632;DHT22;15818;45.534;5.292;2022-10-16T01:23:18;15.60;99.90
28632;DHT22;15818;45.534;5.292;2022-10-16T01:28:34;15.60;99.90
28632;DHT22;15818;45.534;5.292;2022-10-16T01:31:02;15.60;99.90
28632;DHT22;15818;45.534;5.292;2022-10-16T01:33:47;15.60;99.90
28632;DHT22;15818;45.534;5.292;2022-10-16T01:36:23;15.60;99.90
28632;DHT22;15818;45.534;5.292;2022-10-16T01:38:53;15.60;99.90
28632;DHT22;15818;45.534;5.292;2022-10-16T01:41:26;15.60;99.90
28632;DHT22;15818;45.534;5.292;2022-10-16T01:44:08;15.50;99.90
28632;DHT22;15818;45.534;5.292;2022-10-16T01:46:39;15.60;99.90
28632;DHT22;15818;45.534;5.292;2022-10-16T01:49:06;15.60;99.90
28632;DHT22;15818;45.534;5.292;2022-10-16T01:51:34;15.70;99.90
28632;DHT22;15818;45.534;5.292;2022-10-16T01:54:02;15.60;99.90
28632;DHT22;15818;45.534;5.292;2022-10-16T01:56:29;15.70;99.90
28632;DHT22;15818;45.534;5.292;2022-10-16T01:59:00;15.70;99.90
28632;DHT22;15818;45.534;5.292;2022-10-16T02:01:29;15.70;99.90
28632;DHT22;15818;45.534;5.292;2022-10-16T02:03:58;15.70;99.90
28632;DHT22;15818;45.534;5.292;2022-10-16T02:06:25;15.70;99.90
28632;DHT22;15818;45.534;5.292;2022-10-16T02:08:51;15.70;99.90
28632;DHT22;15818;45.534;5.292;2022-10-16T02:11:17;15.70;99.90
28632;DHT22;15818;45.534;5.292;2022-10-16T02:13:50;15.60;99.90
28632;DHT22;15818;45.534;5.292;2022-10-16T02:16:17;15.60;99.90
28632;DHT22;15818;45.534;5.292;2022-10-16T02:18:43;15.60;99.90
28632;DHT22;15818;45.534;5.292;2022-10-16T02:21:34;15.50;99.90
28632;DHT22;15818;45.534;5.292;2022-10-16T02:24:17;15.60;99.90
28632;DHT22;15818;45.534;5.292;2022-10-16T02:26:52;15.60;99.90
28632;DHT22;15818;45.534;5.292;2022-10-16T02:29:23;15.60;99.90
28632;DHT22;15818;45.534;5.292;2022-10-16T02:31:55;15.60;99.90
28632;DHT22;15818;45.534;5.292;2022-10-16T02:34:25;15.60;99.90
28632;DHT22;15818;45.534;5.292;2022-10-16T02:36:52;15.50;99.90
28632;DHT22;15818;45.534;5.292;2022-10-16T02:39:19;15.60;99.90
28632;DHT22;15818;45.534;5.292;2022-10-16T02:41:46;15.60;99.90
28632;DHT22;15818;45.534;5.292;2022-10-16T02:44:11;15.60;99.90
28632;DHT22;15818;45.534;5.292;2022-10-16T02:46:37;15.60;99.90
28632;DHT22;15818;45.534;5.292;2022-10-16T02:49:02;15.60;99.90
28632;DHT22;15818;45.534;5.292;2022-10-16T02:51:28;15.60;99.90
28632;DHT22;15818;45.534;5.292;2022-10-16T02:53:54;15.70;99.90
28632;DHT22;15818;45.534;5.292;2022-10-16T02:56:20;15.70;99.90
28632;DHT22;15818;45.534;5.292;2022-10-16T02:58:45;15.80;99.90
28632;DHT22;15818;45.534;5.292;2022-10-16T03:01:11;15.80;99.90
28632;DHT22;15818;45.534;5.292;2022-10-16T03:03:38;15.70;99.90
28632;DHT22;15818;45.534;5.292;2022-10-16T03:06:04;15.70;99.90
28632;DHT22;15818;45.534;5.292;2022-10-16T03:08:30;15.70;99.90
28632;DHT22;15818;45.534;5.292;2022-10-16T03:10:55;15.80;99.90
28632;DHT22;15818;45.534;5.292;2022-10-16T03:13:21;15.70;99.90
28632;DHT22;15818;45.534;5.292;2022-10-16T03:15:47;15.70;99.90
28632;DHT22;15818;45.534;5.292;2022-10-16T03:18:13;15.70;99.90
28632;DHT22;15818;45.534;5.292;2022-10-16T03:20:38;15.60;99.90
28632;DHT22;15818;45.534;5.292;2022-10-16T03:23:04;15.70;99.90
28632;DHT22;15818;45.534;5.292;2022-10-16T03:25:30;15.70;99.90
28632;DHT22;15818;45.534;5.292;2022-10-16T03:27:55;15.70;99.90
28632;DHT22;15818;45.534;5.292;2022-10-16T03:30:21;15.70;99.90
28632;DHT22;15818;45.534;5.292;2022-10-16T03:32:47;15.70;99.90
28632;DHT22;15818;45.534;5.292;2022-10-16T03:35:12;15.70;99.90
28632;DHT22;15818;45.534;5.292;2022-10-16T03:37:38;15.70;99.90
28632;DHT22;15818;45.534;5.292;2022-10-16T03:40:04;15.70;99.90
28632;DHT22;15818;45.534;5.292;2022-10-16T03:42:30;15.70;99.90
28632;DHT22;15818;45.534;5.292;2022-10-16T03:44:56;15.70;99.90
28632;DHT22;15818;45.534;5.292;2022-10-16T03:47:22;15.70;99.90
28632;DHT22;15818;45.534;5.292;2022-10-16T03:49:49;15.80;99.90
28632;DHT22;15818;45.534;5.292;2022-10-16T03:52:15;15.80;99.90
28632;DHT22;15818;45.534;5.292;2022-10-16T03:54:41;15.80;99.90
28632;DHT22;15818;45.534;5.292;2022-10-16T03:57:07;15.80;99.90
28632;DHT22;15818;45.534;5.292;2022-10-16T03:59:33;15.80;99.90
28632;DHT22;15818;45.534;5.292;2022-10-16T04:01:58;15.80;99.90
28632;DHT22;15818;45.534;5.292;2022-10-16T04:04:24;15.80;99.90
28632;DHT22;15818;45.534;5.292;2022-10-16T04:06:50;15.80;99.90
28632;DHT22;15818;45.534;5.292;2022-10-16T04:09:16;15.70;99.90
28632;DHT22;15818;45.534;5.292;2022-10-16T04:11:42;15.60;99.90
28632;DHT22;15818;45.534;5.292;2022-10-16T04:14:08;15.60;99.90
28632;DHT22;15818;45.534;5.292;2022-10-16T04:16:33;15.60;99.90
28632;DHT22;15818;45.534;5.292;2022-10-16T04:18:59;15.60;99.90
28632;DHT22;15818;45.534;5.292;2022-10-16T04:21:25;15.60;99.90
28632;DHT22;15818;45.534;5.292;2022-10-16T04:23:50;15.60;99.90
28632;DHT22;15818;45.534;5.292;2022-10-16T04:26:16;15.60;99.90
28632;DHT22;15818;45.534;5.292;2022-10-16T04:28:41;15.60;99.90
28632;DHT22;15818;45.534;5.292;2022-10-16T04:31:08;15.50;99.90
28632;DHT22;15818;45.534;5.292;2022-10-16T04:33:33;15.50;99.90
28632;DHT22;15818;45.534;5.292;2022-10-16T04:36:00;15.50;99.90
28632;DHT22;15818;45.534;5.292;2022-10-16T04:38:26;15.50;99.90
28632;DHT22;15818;45.534;5.292;2022-10-16T04:40:52;15.40;99.90
28632;DHT22;15818;45.534;5.292;2022-10-16T04:43:18;15.50;99.90
28632;DHT22;15818;45.534;5.292;2022-10-16T04:45:45;15.40;99.90
28632;DHT22;15818;45.534;5.292;2022-10-16T04:48:10;15.20;99.90
28632;DHT22;15818;45.534;5.292;2022-10-16T04:50:36;15.10;99.90
28632;DHT22;15818;45.534;5.292;2022-10-16T04:53:01;15.10;99.90
28632;DHT22;15818;45.534;5.292;2022-10-16T04:55:27;15.00;99.90
28632;DHT22;15818;45.534;5.292;2022-10-16T04:57:53;15.00;99.90
28632;DHT22;15818;45.534;5.292;2022-10-16T05:00:19;15.10;99.90
28632;DHT22;15818;45.534;5.292;2022-10-16T05:02:44;15.10;99.90
28632;DHT22;15818;45.534;5.292;2022-10-16T05:05:10;15.10;99.90
28632;DHT22;15818;45.534;5.292;2022-10-16T05:07:37;15.30;99.90
28632;DHT22;15818;45.534;5.292;2022-10-16T05:10:03;15.20;99.90
28632;DHT22;15818;45.534;5.292;2022-10-16T05:12:28;15.20;99.90
28632;DHT22;15818;45.534;5.292;2022-10-16T05:14:54;15.10;99.90
28632;DHT22;15818;45.534;5.292;2022-10-16T05:17:24;15.10;99.90
28632;DHT22;15818;45.534;5.292;2022-10-16T05:19:50;15.10;99.90
28632;DHT22;15818;45.534;5.292;2022-10-16T05:22:16;15.10;99.90
28632;DHT22;15818;45.534;5.292;2022-10-16T05:24:42;15.10;99.90
28632;DHT22;15818;45.534;5.292;2022-10-16T05:27:07;15.20;99.90
28632;DHT22;15818;45.534;5.292;2022-10-16T05:29:33;15.10;99.90
28632;DHT22;15818;45.534;5.292;2022-10-16T05:31:58;15.10;99.90
28632;DHT22;15818;45.534;5.292;2022-10-16T05:34:24;15.10;99.90
28632;DHT22;15818;45.534;5.292;2022-10-16T05:36:50;15.10;99.90
28632;DHT22;15818;45.534;5.292;2022-10-16T05:39:16;15.00;99.90
28632;DHT22;15818;45.534;5.292;2022-10-16T05:41:41;15.10;99.90
28632;DHT22;15818;45.534;5.292;2022-10-16T05:44:07;15.00;99.90
28632;DHT22;15818;45.534;5.292;2022-10-16T05:46:33;15.10;99.90
28632;DHT22;15818;45.534;5.292;2022-10-16T05:48:59;15.00;99.90
28632;DHT22;15818;45.534;5.292;2022-10-16T05:51:24;15.00;99.90
28632;DHT22;15818;45.534;5.292;2022-10-16T05:53:51;15.00;99.90
28632;DHT22;15818;45.534;5.292;2022-10-16T05:56:17;15.00;99.90
28632;DHT22;15818;45.534;5.292;2022-10-16T05:58:43;14.90;99.90
28632;DHT22;15818;45.534;5.292;2022-10-16T06:01:10;14.90;99.90
28632;DHT22;15818;45.534;5.292;2022-10-16T06:03:36;14.90;99.90
28632;DHT22;15818;45.534;5.292;2022-10-16T06:06:12;14.80;99.90
28632;DHT22;15818;45.534;5.292;2022-10-16T06:08:39;14.90;99.90
28632;DHT22;15818;45.534;5.292;2022-10-16T06:11:07;14.90;99.90
28632;DHT22;15818;45.534;5.292;2022-10-16T06:13:33;15.00;99.90
28632;DHT22;15818;45.534;5.292;2022-10-16T06:15:59;14.90;99.90
28632;DHT22;15818;45.534;5.292;2022-10-16T06:18:26;14.90;99.90
28632;DHT22;15818;45.534;5.292;2022-10-16T06:20:53;14.90;99.90
28632;DHT22;15818;45.534;5.292;2022-10-16T06:23:19;15.00;99.90
28632;DHT22;15818;45.534;5.292;2022-10-16T06:25:44;14.90;99.90
28632;DHT22;15818;45.534;5.292;2022-10-16T06:28:10;15.00;99.90
28632;DHT22;15818;45.534;5.292;2022-10-16T06:30:36;15.00;99.90
28632;DHT22;15818;45.534;5.292;2022-10-16T06:33:01;15.10;99.90
28632;DHT22;15818;45.534;5.292;2022-10-16T06:35:27;15.10;99.90
28632;DHT22;15818;45.534;5.292;2022-10-16T06:37:54;15.20;99.90
28632;DHT22;15818;45.534;5.292;2022-10-16T06:40:20;15.20;99.90
28632;DHT22;15818;45.534;5.292;2022-10-16T06:42:46;15.30;99.90
28632;DHT22;15818;45.534;5.292;2022-10-16T06:45:11;15.30;99.90
28632;DHT22;15818;45.534;5.292;2022-10-16T06:47:38;15.40;99.90
28632;DHT22;15818;45.534;5.292;2022-10-16T06:50:03;15.40;99.90
28632;DHT22;15818;45.534;5.292;2022-10-16T06:52:29;15.40;99.90
28632;DHT22;15818;45.534;5.292;2022-10-16T06:54:55;15.50;99.90
28632;DHT22;15818;45.534;5.292;2022-10-16T06:57:21;15.60;99.90
28632;DHT22;15818;45.534;5.292;2022-10-16T06:59:46;15.70;99.90
28632;DHT22;15818;45.534;5.292;2022-10-16T07:02:12;15.70;99.90
28632;DHT22;15818;45.534;5.292;2022-10-16T07:04:37;15.80;99.90
28632;DHT22;15818;45.534;5.292;2022-10-16T07:07:03;15.80;99.90
28632;DHT22;15818;45.534;5.292;2022-10-16T07:09:29;15.90;99.90
28632;DHT22;15818;45.534;5.292;2022-10-16T07:11:54;15.90;99.90
28632;DHT22;15818;45.534;5.292;2022-10-16T07:14:20;16.00;99.90
28632;DHT22;15818;45.534;5.292;2022-10-16T07:16:47;16.10;99.90
28632;DHT22;15818;45.534;5.292;2022-10-16T07:19:13;16.10;99.90
28632;DHT22;15818;45.534;5.292;2022-10-16T07:21:41;16.30;99.90
28632;DHT22;15818;45.534;5.292;2022-10-16T07:24:11;16.40;99.90
28632;DHT22;15818;45.534;5.292;2022-10-16T07:26:38;16.50;99.90
28632;DHT22;15818;45.534;5.292;2022-10-16T07:29:12;16.60;99.90
28632;DHT22;15818;45.534;5.292;2022-10-16T07:31:39;16.70;99.90
28632;DHT22;15818;45.534;5.292;2022-10-16T07:34:05;16.80;99.90
28632;DHT22;15818;45.534;5.292;2022-10-16T07:36:30;17.00;99.90
28632;DHT22;15818;45.534;5.292;2022-10-16T07:38:56;17.10;99.90
28632;DHT22;15818;45.534;5.292;2022-10-16T07:41:22;17.30;99.90
28632;DHT22;15818;45.534;5.292;2022-10-16T07:43:49;17.30;99.90
28632;DHT22;15818;45.534;5.292;2022-10-16T07:46:16;17.50;99.90
28632;DHT22;15818;45.534;5.292;2022-10-16T07:48:43;17.60;99.90
28632;DHT22;15818;45.534;5.292;2022-10-16T07:51:11;17.60;99.90
28632;DHT22;15818;45.534;5.292;2022-10-16T07:53:37;17.90;99.90
28632;DHT22;15818;45.534;5.292;2022-10-16T07:56:04;18.00;99.90
28632;DHT22;15818;45.534;5.292;2022-10-16T07:58:30;18.00;99.90
28632;DHT22;15818;45.534;5.292;2022-10-16T08:00:56;18.10;99.90
28632;DHT22;15818;45.534;5.292;2022-10-16T08:03:22;18.20;99.90
28632;DHT22;15818;45.534;5.292;2022-10-16T08:05:48;18.30;99.90
28632;DHT22;15818;45.534;5.292;2022-10-16T08:08:15;18.50;99.90
28632;DHT22;15818;45.534;5.292;2022-10-16T08:10:41;18.90;99.90
28632;DHT22;15818;45.534;5.292;2022-10-16T08:13:07;19.10;99.90
28632;DHT22;15818;45.534;5.292;2022-10-16T08:15:32;19.20;99.90
28632;DHT22;15818;45.534;5.292;2022-10-16T08:17:59;18.90;99.90
28632;DHT22;15818;45.534;5.292;2022-10-16T08:20:26;19.20;99.90
28632;DHT22;15818;45.534;5.292;2022-10-16T08:22:52;19.50;99.90
28632;DHT22;15818;45.534;5.292;2022-10-16T08:25:20;19.50;99.90
28632;DHT22;15818;45.534;5.292;2022-10-16T08:27:46;19.40;99.90
28632;DHT22;15818;45.534;5.292;2022-10-16T08:30:12;19.50;99.90
28632;DHT22;15818;45.534;5.292;2022-10-16T08:32:38;19.90;99.90
28632;DHT22;15818;45.534;5.292;2022-10-16T08:35:05;20.20;99.90
28632;DHT22;15818;45.534;5.292;2022-10-16T08:37:31;20.70;99.90
28632;DHT22;15818;45.534;5.292;2022-10-16T08:39:58;21.90;99.90
28632;DHT22;15818;45.534;5.292;2022-10-16T08:45:33;22.00;99.90
28632;DHT22;15818;45.534;5.292;2022-10-16T08:50:32;21.60;99.90
28632;DHT22;15818;45.534;5.292;2022-10-16T08:53:04;22.10;99.90
28632;DHT22;15818;45.534;5.292;2022-10-16T08:55:51;22.50;99.90
28632;DHT22;15818;45.534;5.292;2022-10-16T08:58:29;22.50;99.90
28632;DHT22;15818;45.534;5.292;2022-10-16T09:01:10;22.10;99.90
28632;DHT22;15818;45.534;5.292;2022-10-16T09:06:49;24.10;99.90
28632;DHT22;15818;45.534;5.292;2022-10-16T09:23:25;25.60;99.90
28632;DHT22;15818;45.534;5.292;2022-10-16T09:25:53;25.10;99.90
28632;DHT22;15818;45.534;5.292;2022-10-16T09:28:20;26.10;99.90
28632;DHT22;15818;45.534;5.292;2022-10-16T09:30:46;25.80;99.90
28632;DHT22;15818;45.534;5.292;2022-10-16T09:33:17;25.70;99.90
28632;DHT22;15818;45.534;5.292;2022-10-16T09:35:45;25.40;99.90
28632;DHT22;15818;45.534;5.292;2022-10-16T09:38:28;24.90;99.90
28632;DHT22;15818;45.534;5.292;2022-10-16T09:41:01;26.20;99.90
28632;DHT22;15818;45.534;5.292;2022-10-16T09:46:08;26.50;99.90
28632;DHT22;15818;45.534;5.292;2022-10-16T09:51:06;28.70;99.90
28632;DHT22;15818;45.534;5.292;2022-10-16T09:53:46;26.80;99.90
28632;DHT22;15818;45.534;5.292;2022-10-16T09:56:26;26.70;99.90
28632;DHT22;15818;45.534;5.292;2022-10-16T09:58:57;28.50;99.90
28632;DHT22;15818;45.534;5.292;2022-10-16T10:01:44;29.10;99.90
28632;DHT22;15818;45.534;5.292;2022-10-16T10:04:11;29.10;99.90
28632;DHT22;15818;45.534;5.292;2022-10-16T10:09:22;28.50;99.90
28632;DHT22;15818;45.534;5.292;2022-10-16T10:14:35;30.30;99.90
28632;DHT22;15818;45.534;5.292;2022-10-16T10:19:40;28.90;99.90
28632;DHT22;15818;45.534;5.292;2022-10-16T10:22:26;28.70;99.90
28632;DHT22;15818;45.534;5.292;2022-10-16T10:30:23;28.80;99.90
28632;DHT22;15818;45.534;5.292;2022-10-16T10:33:24;29.70;99.90
28632;DHT22;15818;45.534;5.292;2022-10-16T11:08:33;28.50;99.90
28632;DHT22;15818;45.534;5.292;2022-10-16T11:16:35;28.20;99.90
28632;DHT22;15818;45.534;5.292;2022-10-16T11:26:59;29.50;99.90
28632;DHT22;15818;45.534;5.292;2022-10-16T11:29:30;28.20;99.90
28632;DHT22;15818;45.534;5.292;2022-10-16T11:32:01;28.30;99.90
28632;DHT22;15818;45.534;5.292;2022-10-16T11:34:51;29.00;99.90
28632;DHT22;15818;45.534;5.292;2022-10-16T11:37:42;28.50;99.90
28632;DHT22;15818;45.534;5.292;2022-10-16T11:42:46;27.00;99.90
28632;DHT22;15818;45.534;5.292;2022-10-16T11:45:23;27.50;99.90
28632;DHT22;15818;45.534;5.292;2022-10-16T11:48:06;26.90;99.90
28632;DHT22;15818;45.534;5.292;2022-10-16T11:50:39;27.20;99.90
28632;DHT22;15818;45.534;5.292;2022-10-16T11:55:52;27.30;99.90
28632;DHT22;15818;45.534;5.292;2022-10-16T12:01:18;27.00;99.90
28632;DHT22;15818;45.534;5.292;2022-10-16T12:06:49;26.80;99.90
28632;DHT22;15818;45.534;5.292;2022-10-16T12:09:34;27.40;99.90
28632;DHT22;15818;45.534;5.292;2022-10-16T12:12:01;27.50;99.90
28632;DHT22;15818;45.534;5.292;2022-10-16T12:14:37;26.50;99.90
28632;DHT22;15818;45.534;5.292;2022-10-16T12:17:34;25.60;99.90
28632;DHT22;15818;45.534;5.292;2022-10-16T12:22:47;26.10;99.90
28632;DHT22;15818;45.534;5.292;2022-10-16T12:25:34;26.10;99.90
28632;DHT22;15818;45.534;5.292;2022-10-16T12:30:43;26.10;99.90
28632;DHT22;15818;45.534;5.292;2022-10-16T12:35:47;26.20;99.90
28632;DHT22;15818;45.534;5.292;2022-10-16T12:38:45;25.90;99.90
28632;DHT22;15818;45.534;5.292;2022-10-16T12:41:08;26.10;99.90
28632;DHT22;15818;45.534;5.292;2022-10-16T12:43:45;26.20;99.90
28632;DHT22;15818;45.534;5.292;2022-10-16T12:48:42;26.40;99.90
28632;DHT22;15818;45.534;5.292;2022-10-16T12:51:20;25.80;99.90
28632;DHT22;15818;45.534;5.292;2022-10-16T12:54:02;26.10;99.90
28632;DHT22;15818;45.534;5.292;2022-10-16T13:10:00;24.90;99.90
28632;DHT22;15818;45.534;5.292;2022-10-16T13:13:01;24.70;99.90
28632;DHT22;15818;45.534;5.292;2022-10-16T13:27:13;25.00;99.90
28632;DHT22;15818;45.534;5.292;2022-10-16T13:29:44;24.90;99.90
28632;DHT22;15818;45.534;5.292;2022-10-16T13:32:11;25.00;99.90
28632;DHT22;15818;45.534;5.292;2022-10-16T13:34:48;24.10;99.90
28632;DHT22;15818;45.534;5.292;2022-10-16T13:37:32;24.00;99.90
28632;DHT22;15818;45.534;5.292;2022-10-16T13:40:27;24.40;99.90
28632;DHT22;15818;45.534;5.292;2022-10-16T13:42:53;24.10;99.90
28632;DHT22;15818;45.534;5.292;2022-10-16T13:45:24;24.40;99.90
28632;DHT22;15818;45.534;5.292;2022-10-16T13:48:09;23.70;99.90
28632;DHT22;15818;45.534;5.292;2022-10-16T13:50:37;23.50;99.90
28632;DHT22;15818;45.534;5.292;2022-10-16T13:53:07;23.40;99.90
28632;DHT22;15818;45.534;5.292;2022-10-16T13:55:33;23.30;99.90
28632;DHT22;15818;45.534;5.292;2022-10-16T13:58:12;23.30;99.90
28632;DHT22;15818;45.534;5.292;2022-10-16T14:00:38;23.50;99.90
28632;DHT22;15818;45.534;5.292;2022-10-16T14:03:11;23.40;99.90
28632;DHT22;15818;45.534;5.292;2022-10-16T14:05:50;23.60;99.90
28632;DHT22;15818;45.534;5.292;2022-10-16T14:08:17;23.30;99.90
28632;DHT22;15818;45.534;5.292;2022-10-16T14:10:47;23.60;99.90
28632;DHT22;15818;45.534;5.292;2022-10-16T14:13:20;23.40;99.90
28632;DHT22;15818;45.534;5.292;2022-10-16T14:15:49;23.80;99.90
28632;DHT22;15818;45.534;5.292;2022-10-16T14:18:20;23.30;99.90
28632;DHT22;15818;45.534;5.292;2022-10-16T14:20:48;23.40;99.90
28632;DHT22;15818;45.534;5.292;2022-10-16T14:23:35;23.00;99.90
28632;DHT22;15818;45.534;5.292;2022-10-16T14:28:39;23.50;99.90
28632;DHT22;15818;45.534;5.292;2022-10-16T14:31:31;23.40;99.90
28632;DHT22;15818;45.534;5.292;2022-10-16T14:33:58;23.30;99.90
28632;DHT22;15818;45.534;5.292;2022-10-16T14:36:25;22.80;99.90
28632;DHT22;15818;45.534;5.292;2022-10-16T14:41:24;22.90;99.90
28632;DHT22;15818;45.534;5.292;2022-10-16T14:43:55;22.90;99.90
28632;DHT22;15818;45.534;5.292;2022-10-16T14:46:28;22.80;99.90
28632;DHT22;15818;45.534;5.292;2022-10-16T14:51:41;22.50;99.90
28632;DHT22;15818;45.534;5.292;2022-10-16T14:54:11;22.60;99.90
28632;DHT22;15818;45.534;5.292;2022-10-16T14:56:58;22.50;99.90
28632;DHT22;15818;45.534;5.292;2022-10-16T14:59:37;22.30;99.90
28632;DHT22;15818;45.534;5.292;2022-10-16T15:02:28;22.30;99.90
28632;DHT22;15818;45.534;5.292;2022-10-16T15:04:55;22.10;99.90
28632;DHT22;15818;45.534;5.292;2022-10-16T15:07:21;22.30;99.90
28632;DHT22;15818;45.534;5.292;2022-10-16T15:09:47;22.30;99.90
28632;DHT22;15818;45.534;5.292;2022-10-16T15:12:13;22.20;99.90
28632;DHT22;15818;45.534;5.292;2022-10-16T15:14:39;22.20;99.90
28632;DHT22;15818;45.534;5.292;2022-10-16T15:17:05;22.10;99.90
28632;DHT22;15818;45.534;5.292;2022-10-16T15:19:30;22.10;99.90
28632;DHT22;15818;45.534;5.292;2022-10-16T15:21:56;22.10;99.90
28632;DHT22;15818;45.534;5.292;2022-10-16T15:24:22;22.00;99.90
28632;DHT22;15818;45.534;5.292;2022-10-16T15:26:48;22.00;99.90
28632;DHT22;15818;45.534;5.292;2022-10-16T15:29:15;22.00;99.90
28632;DHT22;15818;45.534;5.292;2022-10-16T15:31:40;22.00;99.90
28632;DHT22;15818;45.534;5.292;2022-10-16T15:34:09;21.90;99.90
28632;DHT22;15818;45.534;5.292;2022-10-16T15:36:37;21.80;99.90
28632;DHT22;15818;45.534;5.292;2022-10-16T15:39:13;21.80;99.90
28632;DHT22;15818;45.534;5.292;2022-10-16T15:41:39;21.70;99.90
28632;DHT22;15818;45.534;5.292;2022-10-16T15:44:04;21.70;99.90
28632;DHT22;15818;45.534;5.292;2022-10-16T15:46:30;21.60;99.90
28632;DHT22;15818;45.534;5.292;2022-10-16T15:48:58;21.60;99.90
28632;DHT22;15818;45.534;5.292;2022-10-16T15:51:24;21.60;99.90
28632;DHT22;15818;45.534;5.292;2022-10-16T15:53:52;21.50;99.90
28632;DHT22;15818;45.534;5.292;2022-10-16T15:56:19;21.40;99.90
28632;DHT22;15818;45.534;5.292;2022-10-16T15:58:44;21.30;99.90
28632;DHT22;15818;45.534;5.292;2022-10-16T16:01:10;21.20;99.90
28632;DHT22;15818;45.534;5.292;2022-10-16T16:03:38;21.20;99.90
28632;DHT22;15818;45.534;5.292;2022-10-16T16:06:08;21.10;99.90
28632;DHT22;15818;45.534;5.292;2022-10-16T16:08:34;21.00;99.90
28632;DHT22;15818;45.534;5.292;2022-10-16T16:11:05;21.00;99.90
28632;DHT22;15818;45.534;5.292;2022-10-16T16:13:32;20.90;99.90
28632;DHT22;15818;45.534;5.292;2022-10-16T16:15:57;20.90;99.90
28632;DHT22;15818;45.534;5.292;2022-10-16T16:18:23;20.90;99.90
28632;DHT22;15818;45.534;5.292;2022-10-16T16:20:50;20.90;99.90
28632;DHT22;15818;45.534;5.292;2022-10-16T16:23:16;20.80;99.90
28632;DHT22;15818;45.534;5.292;2022-10-16T16:25:42;20.80;99.90
28632;DHT22;15818;45.534;5.292;2022-10-16T16:28:08;20.70;99.90
28632;DHT22;15818;45.534;5.292;2022-10-16T16:30:36;20.70;99.90
28632;DHT22;15818;45.534;5.292;2022-10-16T16:33:02;20.60;99.90
28632;DHT22;15818;45.534;5.292;2022-10-16T16:35:28;20.50;99.90
28632;DHT22;15818;45.534;5.292;2022-10-16T16:37:54;20.40;99.90
28632;DHT22;15818;45.534;5.292;2022-10-16T16:40:20;20.40;99.90
28632;DHT22;15818;45.534;5.292;2022-10-16T16:42:48;20.40;99.90
28632;DHT22;15818;45.534;5.292;2022-10-16T16:45:13;20.30;99.90
28632;DHT22;15818;45.534;5.292;2022-10-16T16:47:39;20.20;99.90
28632;DHT22;15818;45.534;5.292;2022-10-16T16:50:06;20.20;99.90
28632;DHT22;15818;45.534;5.292;2022-10-16T16:52:33;20.20;99.90
28632;DHT22;15818;45.534;5.292;2022-10-16T16:54:58;20.10;99.90
28632;DHT22;15818;45.534;5.292;2022-10-16T16:57:24;20.00;99.90
28632;DHT22;15818;45.534;5.292;2022-10-16T16:59:50;20.00;99.90
28632;DHT22;15818;45.534;5.292;2022-10-16T17:02:17;20.00;99.90
28632;DHT22;15818;45.534;5.292;2022-10-16T17:04:43;20.00;99.90
28632;DHT22;15818;45.534;5.292;2022-10-16T17:07:08;19.90;99.90
28632;DHT22;15818;45.534;5.292;2022-10-16T17:09:34;19.80;99.90
28632;DHT22;15818;45.534;5.292;2022-10-16T17:12:00;19.80;99.90
28632;DHT22;15818;45.534;5.292;2022-10-16T17:14:26;19.80;99.90
28632;DHT22;15818;45.534;5.292;2022-10-16T17:16:52;19.70;99.90
28632;DHT22;15818;45.534;5.292;2022-10-16T17:19:18;19.70;99.90
28632;DHT22;15818;45.534;5.292;2022-10-16T17:21:46;19.60;99.90
28632;DHT22;15818;45.534;5.292;2022-10-16T17:24:13;19.70;99.90
28632;DHT22;15818;45.534;5.292;2022-10-16T17:26:39;19.60;99.90
28632;DHT22;15818;45.534;5.292;2022-10-16T17:29:10;19.60;99.90
28632;DHT22;15818;45.534;5.292;2022-10-16T17:31:36;19.50;99.90
28632;DHT22;15818;45.534;5.292;2022-10-16T17:34:05;19.50;99.90
28632;DHT22;15818;45.534;5.292;2022-10-16T17:36:33;19.40;99.90
28632;DHT22;15818;45.534;5.292;2022-10-16T17:39:00;19.40;99.90
28632;DHT22;15818;45.534;5.292;2022-10-16T17:41:29;19.40;99.90
28632;DHT22;15818;45.534;5.292;2022-10-16T17:43:55;19.40;99.90
28632;DHT22;15818;45.534;5.292;2022-10-16T17:46:22;19.30;99.90
28632;DHT22;15818;45.534;5.292;2022-10-16T17:48:50;19.30;99.90
28632;DHT22;15818;45.534;5.292;2022-10-16T17:51:21;19.30;99.90
28632;DHT22;15818;45.534;5.292;2022-10-16T17:53:48;19.20;99.90
28632;DHT22;15818;45.534;5.292;2022-10-16T17:56:14;19.20;99.90
28632;DHT22;15818;45.534;5.292;2022-10-16T17:58:41;19.20;99.90
28632;DHT22;15818;45.534;5.292;2022-10-16T18:01:16;19.10;99.90
28632;DHT22;15818;45.534;5.292;2022-10-16T18:03:42;19.00;99.90
28632;DHT22;15818;45.534;5.292;2022-10-16T18:06:08;19.10;99.90
28632;DHT22;15818;45.534;5.292;2022-10-16T18:08:34;19.10;99.90
28632;DHT22;15818;45.534;5.292;2022-10-16T18:11:03;19.10;99.90